createdAt,value
2023-05-10T05:02:09.358Z,13.45
2023-05-10T05:04:36.391Z,13.38
2023-05-10T05:07:03.029Z,13.41
2023-05-10T05:09:30.302Z,13.41
2023-05-10T05:11:56.887Z,13.38
2023-05-10T05:14:25.898Z,13.37
2023-05-10T05:16:53.604Z,13.41
2023-05-10T05:19:20.919Z,13.44
2023-05-10T05:21:47.655Z,13.41
2023-05-10T05:24:14.858Z,13.34
2023-05-10T05:26:41.486Z,13.32
2023-05-10T05:29:08.497Z,13.34
2023-05-10T05:31:35.100Z,13.33
2023-05-10T05:34:02.383Z,13.37
2023-05-10T05:36:29.044Z,13.36
2023-05-10T05:38:56.250Z,13.41
2023-05-10T05:41:23.253Z,13.43
2023-05-10T05:43:50.874Z,13.38
2023-05-10T05:46:17.541Z,13.35
2023-05-10T05:48:44.745Z,13.36
2023-05-10T05:51:11.708Z,13.36
2023-05-10T05:53:38.946Z,13.39
2023-05-10T05:56:05.664Z,13.40
2023-05-10T05:58:32.580Z,13.41
2023-05-10T06:00:59.157Z,13.41
2023-05-10T06:03:26.561Z,13.41
2023-05-10T06:05:53.281Z,13.36
2023-05-10T06:08:20.559Z,13.28
2023-05-10T06:10:47.179Z,13.23
2023-05-10T06:13:14.340Z,13.20
2023-05-10T06:15:40.984Z,13.14
2023-05-10T06:18:08.268Z,13.10
2023-05-10T06:20:34.922Z,13.15
2023-05-10T06:23:02.169Z,13.20
2023-05-10T06:25:28.754Z,13.21
2023-05-10T06:27:58.850Z,13.27
2023-05-10T06:30:29.475Z,13.35
2023-05-10T06:32:57.529Z,13.32
2023-05-10T06:35:24.270Z,13.36
2023-05-10T06:37:52.238Z,13.42
2023-05-10T06:40:19.299Z,13.43
2023-05-10T06:42:47.750Z,13.45
2023-05-10T06:45:15.890Z,13.47
2023-05-10T06:47:43.780Z,13.50
2023-05-10T06:50:12.199Z,13.50
2023-05-10T06:52:39.869Z,13.50
2023-05-10T06:55:06.917Z,13.51
2023-05-10T06:57:34.229Z,13.47
2023-05-10T07:00:01.031Z,13.49
2023-05-10T07:02:28.493Z,13.51
2023-05-10T07:04:56.395Z,13.52
2023-05-10T07:07:23.699Z,13.56
2023-05-10T07:09:50.995Z,13.57
2023-05-10T07:12:18.107Z,13.54
2023-05-10T07:14:44.730Z,13.54
2023-05-10T07:17:11.877Z,13.55
2023-05-10T07:19:38.476Z,13.57
2023-05-10T07:22:05.482Z,13.52
2023-05-10T07:24:33.129Z,13.49
2023-05-10T07:27:00.064Z,13.54
2023-05-10T07:29:26.905Z,13.64
2023-05-10T07:31:55.368Z,13.65
2023-05-10T07:34:23.714Z,13.68
2023-05-10T07:36:50.700Z,13.68
2023-05-10T07:39:26.593Z,13.72
2023-05-10T07:41:54.728Z,13.76
2023-05-10T07:44:21.444Z,13.80
2023-05-10T07:46:48.942Z,13.91
2023-05-10T07:49:15.717Z,13.91
2023-05-10T07:51:43.645Z,13.95
2023-05-10T07:54:10.326Z,13.93
2023-05-10T07:56:37.442Z,13.90
2023-05-10T07:59:05.946Z,14.00
2023-05-10T08:01:33.905Z,14.05
2023-05-10T08:04:01.123Z,14.12
2023-05-10T08:06:29.460Z,14.13
2023-05-10T08:08:56.518Z,14.23
2023-05-10T08:11:23.735Z,14.34
2023-05-10T08:13:51.511Z,14.39
2023-05-10T08:16:18.942Z,14.55
2023-05-10T08:18:47.676Z,14.75
2023-05-10T08:21:16.025Z,14.87
2023-05-10T08:23:44.497Z,14.84
2023-05-10T08:26:11.543Z,14.88
2023-05-10T08:28:38.965Z,15.03
2023-05-10T08:31:06.248Z,15.22
2023-05-10T08:33:33.650Z,15.36
2023-05-10T08:36:00.705Z,15.59
2023-05-10T08:38:27.453Z,15.75
2023-05-10T08:41:00.126Z,15.83
2023-05-10T08:43:29.541Z,15.92
2023-05-10T08:45:58.030Z,15.99
2023-05-10T08:48:25.700Z,16.06
2023-05-10T08:50:57.659Z,15.97
2023-05-10T08:53:27.492Z,15.85
2023-05-10T08:55:54.880Z,15.72
2023-05-10T08:58:21.718Z,15.65
2023-05-10T09:00:52.209Z,15.46
2023-05-10T09:03:19.131Z,15.39
2023-05-10T09:05:47.130Z,15.34
2023-05-10T09:08:16.682Z,15.39
2023-05-10T09:10:44.733Z,15.47
2023-05-10T09:13:12.798Z,15.54
2023-05-10T09:15:40.061Z,15.63
2023-05-10T09:18:06.910Z,15.73
2023-05-10T09:20:34.197Z,15.67
2023-05-10T09:23:00.860Z,15.72
2023-05-10T09:25:27.874Z,15.86
2023-05-10T09:27:56.260Z,16.05
2023-05-10T09:30:27.291Z,16.26
2023-05-10T09:32:56.023Z,16.28
2023-05-10T09:35:27.082Z,16.26
2023-05-10T09:37:57.807Z,16.39
2023-05-10T09:40:27.436Z,16.50
2023-05-10T09:42:55.588Z,16.59
2023-05-10T09:45:24.550Z,16.75
2023-05-10T09:47:51.508Z,16.81
2023-05-10T09:50:19.675Z,16.85
2023-05-10T09:53:01.432Z,16.93
2023-05-10T09:55:37.369Z,17.10
2023-05-10T09:58:05.321Z,17.39
2023-05-10T10:00:40.238Z,17.68
2023-05-10T10:03:07.743Z,18.01
2023-05-10T10:05:37.291Z,18.28
2023-05-10T10:08:05.732Z,18.30
2023-05-10T10:10:34.545Z,18.14
2023-05-10T10:13:01.390Z,18.02
2023-05-10T10:15:28.511Z,17.85
2023-05-10T10:17:55.375Z,17.71
2023-05-10T10:20:24.028Z,17.93
2023-05-10T10:22:50.817Z,18.19
2023-05-10T10:25:19.173Z,18.53
2023-05-10T10:28:00.450Z,18.62
2023-05-10T10:30:27.605Z,18.91
2023-05-10T10:33:29.134Z,19.10
2023-05-10T10:35:59.204Z,19.19
2023-05-10T10:38:25.801Z,19.30
2023-05-10T10:41:04.387Z,19.54
2023-05-10T10:43:31.283Z,19.77
2023-05-10T10:46:18.879Z,19.94
2023-05-10T10:48:50.275Z,20.09
2023-05-10T10:51:17.856Z,20.33
2023-05-10T10:53:44.732Z,20.66
2023-05-10T10:56:14.613Z,20.96
2023-05-10T10:58:42.709Z,21.26
2023-05-10T11:01:12.569Z,21.21
2023-05-10T11:03:39.896Z,21.27
2023-05-10T11:06:06.638Z,21.29
2023-05-10T11:08:38.116Z,21.38
2023-05-10T11:11:10.330Z,21.61
2023-05-10T11:13:48.437Z,21.71
2023-05-10T11:16:24.969Z,21.76
2023-05-10T11:19:00.224Z,21.80
2023-05-10T11:21:27.091Z,21.97
2023-05-10T11:23:59.675Z,22.12
2023-05-10T11:26:34.609Z,22.16
2023-05-10T11:29:03.159Z,22.40
2023-05-10T11:31:30.462Z,22.64
2023-05-10T11:33:59.609Z,22.50
2023-05-10T11:36:34.095Z,22.58
2023-05-10T11:39:01.043Z,22.75
2023-05-10T11:41:29.820Z,22.90
2023-05-10T11:43:57.508Z,23.02
2023-05-10T11:46:28.191Z,22.79
2023-05-10T11:49:04.941Z,22.49
2023-05-10T11:51:35.474Z,22.33
2023-05-10T11:54:05.795Z,22.11
2023-05-10T11:56:34.364Z,22.22
2023-05-10T11:59:02.764Z,22.18
2023-05-10T12:01:30.386Z,22.06
2023-05-10T12:04:01.831Z,21.89
2023-05-10T12:06:32.394Z,21.63
2023-05-10T12:08:59.504Z,21.01
2023-05-10T12:11:28.706Z,20.69
2023-05-10T12:13:57.032Z,20.48
2023-05-10T12:16:26.354Z,20.07
2023-05-10T12:18:54.649Z,19.91
2023-05-10T12:21:22.972Z,19.87
2023-05-10T12:23:52.390Z,19.77
2023-05-10T12:26:22.877Z,19.91
2023-05-10T12:28:49.568Z,19.80
2023-05-10T12:31:16.879Z,19.77
2023-05-10T12:33:46.135Z,19.66
2023-05-10T12:36:14.087Z,19.53
2023-05-10T12:38:44.157Z,19.49
2023-05-10T12:41:13.977Z,19.50
2023-05-10T12:43:41.065Z,19.33
2023-05-10T12:46:16.023Z,19.26
2023-05-10T12:48:44.131Z,19.12
2023-05-10T12:51:13.119Z,18.88
2023-05-10T12:53:41.664Z,18.80
2023-05-10T12:56:11.550Z,18.74
2023-05-10T12:58:39.741Z,18.80
2023-05-10T13:01:07.289Z,18.95
2023-05-10T13:03:33.974Z,19.08
2023-05-10T13:06:01.286Z,19.17
2023-05-10T13:08:27.877Z,19.27
2023-05-10T13:10:54.783Z,19.39
2023-05-10T13:13:21.989Z,19.33
2023-05-10T13:15:48.564Z,19.25
2023-05-10T13:18:15.932Z,19.27
2023-05-10T13:20:44.020Z,19.18
2023-05-10T13:23:11.673Z,19.25
2023-05-10T13:25:38.402Z,19.31
2023-05-10T13:28:05.717Z,19.20
2023-05-10T13:30:32.369Z,19.21
2023-05-10T13:32:59.619Z,19.05
2023-05-10T13:35:26.240Z,18.82
2023-05-10T13:37:54.741Z,18.66
2023-05-10T13:40:21.330Z,18.49
2023-05-10T13:42:48.525Z,18.38
2023-05-10T13:45:15.241Z,18.10
2023-05-10T13:47:42.826Z,17.97
2023-05-10T13:50:09.655Z,17.89
2023-05-10T13:52:36.899Z,17.84
2023-05-10T13:55:03.791Z,17.84
2023-05-10T13:57:31.618Z,17.84
2023-05-10T13:59:58.540Z,17.82
2023-05-10T14:02:26.193Z,17.79
2023-05-10T14:04:52.825Z,17.65
2023-05-10T14:07:20.430Z,17.57
2023-05-10T14:09:47.047Z,17.47
2023-05-10T14:12:15.765Z,17.39
2023-05-10T14:14:42.391Z,17.27
2023-05-10T14:17:11.541Z,17.19
2023-05-10T14:19:39.706Z,17.13
2023-05-10T14:22:07.249Z,17.07
2023-05-10T14:24:34.031Z,17.01
2023-05-10T14:27:01.463Z,16.98
2023-05-10T14:29:28.272Z,16.96
2023-05-10T14:31:55.844Z,16.90
2023-05-10T14:34:22.531Z,16.91
2023-05-10T14:36:49.793Z,16.88
2023-05-10T14:39:16.465Z,16.75
2023-05-10T14:41:45.758Z,16.79
2023-05-10T14:44:12.431Z,16.85
2023-05-10T14:46:40.725Z,16.83
2023-05-10T14:49:07.394Z,16.91
2023-05-10T14:51:34.617Z,16.95
2023-05-10T14:54:01.583Z,17.04
2023-05-10T14:56:29.189Z,17.05
2023-05-10T14:58:55.755Z,17.03
2023-05-10T15:01:23.843Z,17.01
2023-05-10T15:03:51.587Z,17.00
2023-05-10T15:06:24.981Z,17.04
2023-05-10T15:08:51.544Z,17.04
2023-05-10T15:11:18.885Z,17.13
2023-05-10T15:13:45.546Z,17.04
2023-05-10T15:16:12.504Z,17.07
2023-05-10T15:18:39.317Z,17.11
2023-05-10T15:21:06.605Z,17.11
2023-05-10T15:23:33.189Z,16.93
2023-05-10T15:26:01.618Z,16.78
2023-05-10T15:28:28.162Z,16.72
2023-05-10T15:30:55.490Z,16.63
2023-05-10T15:33:22.567Z,16.59
2023-05-10T15:35:49.733Z,16.53
2023-05-10T15:38:16.289Z,16.44
2023-05-10T15:40:43.576Z,16.45
2023-05-10T15:43:10.155Z,16.47
2023-05-10T15:45:37.847Z,16.54
2023-05-10T15:48:04.920Z,16.56
2023-05-10T15:50:32.205Z,16.57
2023-05-10T15:52:58.794Z,16.54
2023-05-10T15:55:26.606Z,16.48
2023-05-10T15:57:53.215Z,16.47
2023-05-10T16:00:20.659Z,16.39
2023-05-10T16:02:47.273Z,16.26
2023-05-10T16:05:14.718Z,16.06
2023-05-10T16:07:41.993Z,16.04
2023-05-10T16:10:11.001Z,16.04
2023-05-10T16:12:38.371Z,16.01
2023-05-10T16:15:06.307Z,15.95
2023-05-10T16:17:33.047Z,15.92
2023-05-10T16:20:01.397Z,15.82
2023-05-10T16:22:28.735Z,15.68
2023-05-10T16:24:57.481Z,15.44
2023-05-10T16:27:24.093Z,15.24
2023-05-10T16:29:51.385Z,15.12
2023-05-10T16:32:17.955Z,14.94
2023-05-10T16:34:45.520Z,14.84
2023-05-10T16:37:12.077Z,14.93
2023-05-10T16:39:39.331Z,15.00
2023-05-10T16:42:06.182Z,15.06
2023-05-10T16:44:33.415Z,15.10
2023-05-10T16:47:00.050Z,15.11
2023-05-10T16:49:27.270Z,15.08
2023-05-10T16:51:54.005Z,15.03
2023-05-10T16:54:22.174Z,14.96
2023-05-10T16:56:48.773Z,14.84
2023-05-10T16:59:16.370Z,14.81
2023-05-10T17:01:43.985Z,14.69
2023-05-10T17:04:10.925Z,14.59
2023-05-10T17:06:37.592Z,14.59
2023-05-10T17:09:05.821Z,14.56
2023-05-10T17:11:32.565Z,14.51
2023-05-10T17:14:01.326Z,14.49
2023-05-10T17:16:29.072Z,14.53
2023-05-10T17:18:56.671Z,14.57
2023-05-10T17:21:23.803Z,14.44
2023-05-10T17:23:50.796Z,14.46
2023-05-10T17:26:17.344Z,14.47
2023-05-10T17:28:43.952Z,14.45
2023-05-10T17:31:12.039Z,14.41
2023-05-10T17:33:38.680Z,14.36
2023-05-10T17:36:06.140Z,14.27
2023-05-10T17:38:32.773Z,14.24
2023-05-10T17:40:59.980Z,14.23
2023-05-10T17:43:26.639Z,14.19
2023-05-10T17:45:53.947Z,14.19
2023-05-10T17:48:20.584Z,14.20
2023-05-10T17:50:50.518Z,14.18
2023-05-10T17:53:17.362Z,14.15
2023-05-10T17:55:44.732Z,14.13
2023-05-10T17:58:12.273Z,14.05
2023-05-10T18:00:39.741Z,13.98
2023-05-10T18:03:06.708Z,13.96
2023-05-10T18:05:37.769Z,13.95
2023-05-10T18:08:05.563Z,13.97
2023-05-10T18:10:32.860Z,14.00
2023-05-10T18:13:00.536Z,14.01
2023-05-10T18:15:28.069Z,14.01
2023-05-10T18:17:55.829Z,13.99
2023-05-10T18:20:23.119Z,14.02
2023-05-10T18:22:50.048Z,14.03
2023-05-10T18:25:17.443Z,14.05
2023-05-10T18:27:44.349Z,14.06
2023-05-10T18:30:12.738Z,14.03
2023-05-10T18:32:39.754Z,14.01
2023-05-10T18:35:08.026Z,14.00
2023-05-10T18:37:35.257Z,14.01
2023-05-10T18:40:02.597Z,14.05
2023-05-10T18:42:29.201Z,14.05
2023-05-10T18:44:56.165Z,14.07
2023-05-10T18:47:22.903Z,14.08
2023-05-10T18:49:50.209Z,14.08
2023-05-10T18:52:16.917Z,14.03
2023-05-10T18:54:43.793Z,14.00
2023-05-10T18:57:11.516Z,13.99
2023-05-10T18:59:38.885Z,13.96
2023-05-10T19:02:05.653Z,13.96
2023-05-10T19:04:32.960Z,13.92
2023-05-10T19:07:01.855Z,13.94
2023-05-10T19:09:29.094Z,13.96
2023-05-10T19:11:55.938Z,13.91
2023-05-10T19:14:23.066Z,13.90
2023-05-10T19:16:51.001Z,13.86
2023-05-10T19:19:17.916Z,13.85
2023-05-10T19:21:44.517Z,13.83
2023-05-10T19:24:12.507Z,13.82
2023-05-10T19:26:39.073Z,13.79
2023-05-10T19:29:06.351Z,13.80
2023-05-10T19:31:34.577Z,13.77
2023-05-10T19:34:05.394Z,13.76
2023-05-10T19:36:33.947Z,13.77
2023-05-10T19:39:00.834Z,13.73
2023-05-10T19:41:28.082Z,13.69
2023-05-10T19:43:54.776Z,13.68
2023-05-10T19:46:22.116Z,13.68
2023-05-10T19:48:50.904Z,13.66
2023-05-10T19:51:18.190Z,13.65
2023-05-10T19:53:44.845Z,13.68
2023-05-10T19:56:13.019Z,13.67
2023-05-10T19:58:39.845Z,13.66
2023-05-10T20:01:08.111Z,13.65
2023-05-10T20:03:35.871Z,13.64
2023-05-10T20:06:04.291Z,13.65
2023-05-10T20:08:31.339Z,13.65
2023-05-10T20:11:00.893Z,13.62
2023-05-10T20:13:27.608Z,13.62
2023-05-10T20:15:59.967Z,13.58
2023-05-10T20:18:26.974Z,13.57
2023-05-10T20:20:58.769Z,13.54
2023-05-10T20:23:25.695Z,13.52
2023-05-10T20:25:53.920Z,13.45
2023-05-10T20:28:22.862Z,13.46
